createdAt,value
2018-02-07T21:41:52.966Z,54.31
2018-02-07T21:44:20.331Z,54.44
2018-02-07T21:46:47.498Z,54.64
2018-02-07T21:49:14.587Z,54.90
2018-02-07T21:51:41.735Z,55.05
2018-02-07T21:54:08.912Z,55.00
2018-02-07T21:56:36.407Z,55.97
2018-02-07T21:59:03.689Z,57.10
2018-02-07T22:01:31.251Z,57.05
2018-02-07T22:03:58.688Z,56.67
2018-02-07T22:06:26.315Z,56.60
2018-02-07T22:08:53.742Z,56.88
2018-02-07T22:11:21.384Z,57.10
2018-02-07T22:13:48.725Z,57.09
2018-02-07T22:16:16.365Z,57.13
2018-02-07T22:18:43.770Z,57.27
2018-02-07T22:21:11.661Z,57.23
2018-02-07T22:23:39.193Z,57.33
2018-02-07T22:26:06.653Z,57.38
2018-02-07T22:28:34.364Z,57.45
2018-02-07T22:31:01.779Z,57.42
2018-02-07T22:33:29.588Z,57.34
2018-02-07T22:35:56.800Z,57.42
2018-02-07T22:38:24.639Z,57.44
2018-02-07T22:40:52.368Z,57.43
2018-02-07T22:43:19.771Z,57.15
2018-02-07T22:45:47.655Z,56.92
2018-02-07T22:48:15.232Z,56.93
2018-02-07T22:50:42.650Z,57.04
2018-02-07T22:53:10.260Z,57.29
2018-02-07T22:55:37.701Z,57.85
2018-02-07T22:58:05.418Z,58.20
2018-02-07T23:00:32.725Z,58.48
2018-02-07T23:03:00.171Z,58.70
2018-02-07T23:05:27.593Z,59.31
2018-02-07T23:07:54.774Z,57.51
2018-02-07T23:10:22.393Z,56.84
2018-02-07T23:12:49.712Z,56.50
2018-02-07T23:15:17.253Z,56.81
2018-02-07T23:17:44.638Z,57.01
2018-02-07T23:20:11.931Z,56.74
2018-02-07T23:22:39.593Z,56.30
2018-02-07T23:25:06.706Z,56.11
2018-02-07T23:27:34.229Z,56.15
2018-02-07T23:30:01.689Z,56.03
2018-02-07T23:32:29.210Z,56.28
2018-02-07T23:34:56.688Z,56.47
2018-02-07T23:37:24.246Z,56.67
2018-02-07T23:39:51.682Z,56.81
2018-02-07T23:42:19.343Z,57.04
2018-02-07T23:44:46.715Z,57.19
2018-02-07T23:47:14.370Z,57.41
2018-02-07T23:49:41.689Z,57.62
2018-02-07T23:52:09.337Z,57.77
2018-02-07T23:54:36.708Z,57.77
2018-02-07T23:57:04.224Z,57.58
2018-02-07T23:59:31.607Z,57.29
